sensor_id;sensor_type;location;lat;lon;timestamp;pressure;altitude;pressure_sealevel;temperature;humidity
3796;BME280;1913;50.660;7.834;2022-10-22T00:01:09;96766.22;;;13.39;100.00
3796;BME280;1913;50.660;7.834;2022-10-22T00:03:34;96782.94;;;13.45;100.00
3796;BME280;1913;50.660;7.834;2022-10-22T00:06:00;96785.94;;;13.48;100.00
3796;BME280;1913;50.660;7.834;2022-10-22T00:08:25;96783.63;;;13.52;100.00
3796;BME280;1913;50.660;7.834;2022-10-22T00:10:51;96777.13;;;13.43;100.00
3796;BME280;1913;50.660;7.834;2022-10-22T00:13:17;96776.41;;;13.47;100.00
3796;BME280;1913;50.660;7.834;2022-10-22T00:15:43;96777.47;;;13.34;100.00
3796;BME280;1913;50.660;7.834;2022-10-22T00:18:08;96780.09;;;13.34;100.00
3796;BME280;1913;50.660;7.834;2022-10-22T00:20:33;96774.34;;;13.37;100.00
3796;BME280;1913;50.660;7.834;2022-10-22T00:22:59;96773.88;;;13.40;100.00
3796;BME280;1913;50.660;7.834;2022-10-22T00:25:24;96775.03;;;13.33;100.00
3796;BME280;1913;50.660;7.834;2022-10-22T00:27:50;96767.25;;;13.38;100.00
3796;BME280;1913;50.660;7.834;2022-10-22T00:30:15;96764.84;;;13.36;100.00
3796;BME280;1913;50.660;7.834;2022-10-22T00:32:40;96757.38;;;13.33;100.00
3796;BME280;1913;50.660;7.834;2022-10-22T00:35:06;96762.66;;;13.33;100.00
3796;BME280;1913;50.660;7.834;2022-10-22T00:37:31;96755.66;;;13.27;100.00
3796;BME280;1913;50.660;7.834;2022-10-22T00:39:57;96745.66;;;13.29;100.00
3796;BME280;1913;50.660;7.834;2022-10-22T00:42:25;96743.13;;;13.23;100.00
3796;BME280;1913;50.660;7.834;2022-10-22T00:45:05;96743.81;;;13.18;100.00
3796;BME280;1913;50.660;7.834;2022-10-22T00:50:15;96730.03;;;12.92;100.00
3796;BME280;1913;50.660;7.834;2022-10-22T00:52:41;96728.44;;;12.91;100.00
3796;BME280;1913;50.660;7.834;2022-10-22T00:55:07;96733.13;;;12.89;100.00
3796;BME280;1913;50.660;7.834;2022-10-22T00:57:33;96730.50;;;12.89;100.00
3796;BME280;1913;50.660;7.834;2022-10-22T00:59:59;96733.59;;;12.86;100.00
3796;BME280;1913;50.660;7.834;2022-10-22T01:02:25;96730.59;;;12.83;100.00
3796;BME280;1913;50.660;7.834;2022-10-22T01:04:51;96735.66;;;12.96;100.00
3796;BME280;1913;50.660;7.834;2022-10-22T01:07:19;96729.25;;;13.04;100.00
3796;BME280;1913;50.660;7.834;2022-10-22T01:13:16;96740.38;;;13.06;100.00
3796;BME280;1913;50.660;7.834;2022-10-22T01:18:29;96740.38;;;13.06;100.00
3796;BME280;1913;50.660;7.834;2022-10-22T01:21:22;96738.53;;;13.06;100.00
3796;BME280;1913;50.660;7.834;2022-10-22T01:26:38;96726.94;;;13.19;100.00
3796;BME280;1913;50.660;7.834;2022-10-22T01:31:42;96725.81;;;13.15;100.00
3796;BME280;1913;50.660;7.834;2022-10-22T01:34:13;96731.88;;;13.15;100.00
3796;BME280;1913;50.660;7.834;2022-10-22T01:36:39;96739.69;;;13.22;100.00
3796;BME280;1913;50.660;7.834;2022-10-22T01:39:06;96746.78;;;13.22;100.00
3796;BME280;1913;50.660;7.834;2022-10-22T01:41:33;96747.28;;;13.30;100.00
3796;BME280;1913;50.660;7.834;2022-10-22T01:43:58;96747.84;;;13.32;100.00
3796;BME280;1913;50.660;7.834;2022-10-22T01:46:26;96749.78;;;13.37;100.00
3796;BME280;1913;50.660;7.834;2022-10-22T01:51:58;96746.94;;;13.38;100.00
3796;BME280;1913;50.660;7.834;2022-10-22T01:57:11;96744.41;;;13.44;100.00
3796;BME280;1913;50.660;7.834;2022-10-22T02:07:49;96750.50;;;13.56;100.00
3796;BME280;1913;50.660;7.834;2022-10-22T02:10:17;96750.00;;;13.59;100.00
3796;BME280;1913;50.660;7.834;2022-10-22T02:12:47;96738.97;;;13.62;100.00
3796;BME280;1913;50.660;7.834;2022-10-22T02:15:16;96747.81;;;13.68;100.00
3796;BME280;1913;50.660;7.834;2022-10-22T02:17:44;96750.22;;;13.69;100.00
3796;BME280;1913;50.660;7.834;2022-10-22T02:20:31;96763.16;;;13.82;100.00
3796;BME280;1913;50.660;7.834;2022-10-22T02:22:58;96769.50;;;13.81;100.00
3796;BME280;1913;50.660;7.834;2022-10-22T02:25:27;96774.88;;;13.98;100.00
3796;BME280;1913;50.660;7.834;2022-10-22T02:30:30;96774.28;;;13.96;100.00
3796;BME280;1913;50.660;7.834;2022-10-22T02:33:06;96770.94;;;14.01;100.00
3796;BME280;1913;50.660;7.834;2022-10-22T02:35:34;96785.31;;;13.93;100.00
3796;BME280;1913;50.660;7.834;2022-10-22T02:38:01;96780.94;;;13.87;100.00
3796;BME280;1913;50.660;7.834;2022-10-22T02:40:27;96787.75;;;13.95;100.00
3796;BME280;1913;50.660;7.834;2022-10-22T02:42:55;96789.22;;;13.90;100.00
3796;BME280;1913;50.660;7.834;2022-10-22T02:45:21;96786.47;;;13.85;100.00
3796;BME280;1913;50.660;7.834;2022-10-22T02:47:47;96772.13;;;13.81;100.00
3796;BME280;1913;50.660;7.834;2022-10-22T02:50:12;96766.41;;;13.73;100.00
3796;BME280;1913;50.660;7.834;2022-10-22T02:52:38;96770.31;;;13.70;100.00
3796;BME280;1913;50.660;7.834;2022-10-22T02:55:04;96785.69;;;13.61;100.00
3796;BME280;1913;50.660;7.834;2022-10-22T02:57:30;96786.19;;;13.47;100.00
3796;BME280;1913;50.660;7.834;2022-10-22T02:59:56;96785.94;;;13.36;100.00
3796;BME280;1913;50.660;7.834;2022-10-22T03:02:21;96778.28;;;13.35;100.00
3796;BME280;1913;50.660;7.834;2022-10-22T03:04:47;96782.06;;;13.27;100.00
3796;BME280;1913;50.660;7.834;2022-10-22T03:07:12;96779.19;;;13.29;100.00
3796;BME280;1913;50.660;7.834;2022-10-22T03:09:38;96783.75;;;13.33;100.00
3796;BME280;1913;50.660;7.834;2022-10-22T03:12:03;96784.47;;;13.29;100.00
3796;BME280;1913;50.660;7.834;2022-10-22T03:14:29;96784.69;;;13.27;100.00
3796;BME280;1913;50.660;7.834;2022-10-22T03:16:54;96778.38;;;13.28;100.00
3796;BME280;1913;50.660;7.834;2022-10-22T03:19:19;96783.50;;;13.23;100.00
3796;BME280;1913;50.660;7.834;2022-10-22T03:21:58;96786.94;;;13.12;100.00
3796;BME280;1913;50.660;7.834;2022-10-22T03:24:29;96775.69;;;13.05;100.00
3796;BME280;1913;50.660;7.834;2022-10-22T03:26:56;96776.63;;;12.99;100.00
3796;BME280;1913;50.660;7.834;2022-10-22T03:29:23;96784.72;;;12.97;100.00
3796;BME280;1913;50.660;7.834;2022-10-22T03:31:51;96778.41;;;12.86;100.00
3796;BME280;1913;50.660;7.834;2022-10-22T03:34:16;96787.81;;;12.82;100.00
3796;BME280;1913;50.660;7.834;2022-10-22T03:36:41;96794.13;;;12.81;100.00
3796;BME280;1913;50.660;7.834;2022-10-22T03:39:07;96789.66;;;12.82;100.00
3796;BME280;1913;50.660;7.834;2022-10-22T03:41:34;96787.81;;;12.82;100.00
3796;BME280;1913;50.660;7.834;2022-10-22T03:44:01;96798.25;;;12.77;100.00
3796;BME280;1913;50.660;7.834;2022-10-22T03:46:27;96790.09;;;12.79;100.00
3796;BME280;1913;50.660;7.834;2022-10-22T03:48:53;96791.56;;;12.75;100.00
3796;BME280;1913;50.660;7.834;2022-10-22T03:51:18;96800.53;;;12.74;100.00
3796;BME280;1913;50.660;7.834;2022-10-22T03:53:43;96796.06;;;12.74;100.00
3796;BME280;1913;50.660;7.834;2022-10-22T03:56:10;96795.00;;;12.75;100.00
3796;BME280;1913;50.660;7.834;2022-10-22T03:58:37;96789.97;;;12.74;100.00
3796;BME280;1913;50.660;7.834;2022-10-22T04:01:08;96790.78;;;12.74;100.00
3796;BME280;1913;50.660;7.834;2022-10-22T04:03:34;96788.78;;;12.69;100.00
3796;BME280;1913;50.660;7.834;2022-10-22T04:06:04;96794.91;;;12.82;100.00
3796;BME280;1913;50.660;7.834;2022-10-22T04:08:30;96798.94;;;12.84;100.00
3796;BME280;1913;50.660;7.834;2022-10-22T04:10:56;96792.63;;;12.85;100.00
3796;BME280;1913;50.660;7.834;2022-10-22T04:13:21;96800.00;;;12.95;100.00
3796;BME280;1913;50.660;7.834;2022-10-22T04:15:47;96801.44;;;12.91;100.00
3796;BME280;1913;50.660;7.834;2022-10-22T04:18:12;96800.91;;;12.89;100.00
3796;BME280;1913;50.660;7.834;2022-10-22T04:20:37;96808.13;;;12.93;100.00
3796;BME280;1913;50.660;7.834;2022-10-22T04:23:03;96812.94;;;12.97;100.00
3796;BME280;1913;50.660;7.834;2022-10-22T04:25:28;96812.16;;;12.96;100.00
3796;BME280;1913;50.660;7.834;2022-10-22T04:27:53;96817.19;;;12.98;100.00
3796;BME280;1913;50.660;7.834;2022-10-22T04:30:19;96823.16;;;12.93;100.00
3796;BME280;1913;50.660;7.834;2022-10-22T04:32:44;96825.44;;;13.01;100.00
3796;BME280;1913;50.660;7.834;2022-10-22T04:35:10;96821.22;;;13.12;100.00
3796;BME280;1913;50.660;7.834;2022-10-22T04:37:35;96824.44;;;13.14;100.00
3796;BME280;1913;50.660;7.834;2022-10-22T04:40:00;96829.03;;;13.18;100.00
3796;BME280;1913;50.660;7.834;2022-10-22T04:42:26;96836.09;;;13.25;100.00
3796;BME280;1913;50.660;7.834;2022-10-22T04:44:51;96832.88;;;13.34;100.00
3796;BME280;1913;50.660;7.834;2022-10-22T04:47:17;96841.38;;;13.36;100.00
3796;BME280;1913;50.660;7.834;2022-10-22T04:49:42;96839.88;;;13.40;100.00
3796;BME280;1913;50.660;7.834;2022-10-22T04:52:07;96840.66;;;13.41;100.00
3796;BME280;1913;50.660;7.834;2022-10-22T04:54:33;96838.84;;;13.41;100.00
3796;BME280;1913;50.660;7.834;2022-10-22T04:56:58;96845.50;;;13.44;100.00
3796;BME280;1913;50.660;7.834;2022-10-22T04:59:24;96844.69;;;13.44;100.00
3796;BME280;1913;50.660;7.834;2022-10-22T05:01:49;96847.94;;;13.46;100.00
3796;BME280;1913;50.660;7.834;2022-10-22T05:04:16;96856.28;;;13.43;100.00
3796;BME280;1913;50.660;7.834;2022-10-22T05:06:42;96849.19;;;13.43;100.00
3796;BME280;1913;50.660;7.834;2022-10-22T05:09:11;96860.19;;;13.40;100.00
3796;BME280;1913;50.660;7.834;2022-10-22T05:11:38;96862.81;;;13.40;100.00
3796;BME280;1913;50.660;7.834;2022-10-22T05:14:06;96864.22;;;13.43;100.00
3796;BME280;1913;50.660;7.834;2022-10-22T05:16:34;96864.91;;;13.50;100.00
3796;BME280;1913;50.660;7.834;2022-10-22T05:19:00;96870.88;;;13.45;100.00
3796;BME280;1913;50.660;7.834;2022-10-22T05:21:27;96867.91;;;13.41;100.00
3796;BME280;1913;50.660;7.834;2022-10-22T05:23:53;96882.09;;;13.40;100.00
3796;BME280;1913;50.660;7.834;2022-10-22T05:26:20;96874.19;;;13.40;100.00
3796;BME280;1913;50.660;7.834;2022-10-22T05:28:47;96876.81;;;13.40;100.00
3796;BME280;1913;50.660;7.834;2022-10-22T05:31:14;96874.53;;;13.32;100.00
3796;BME280;1913;50.660;7.834;2022-10-22T05:33:41;96874.28;;;13.34;100.00
3796;BME280;1913;50.660;7.834;2022-10-22T05:36:08;96872.91;;;13.31;100.00
3796;BME280;1913;50.660;7.834;2022-10-22T05:38:34;96883.13;;;13.28;100.00
3796;BME280;1913;50.660;7.834;2022-10-22T05:41:01;96880.41;;;13.16;100.00
3796;BME280;1913;50.660;7.834;2022-10-22T05:43:27;96881.97;;;13.24;100.00
3796;BME280;1913;50.660;7.834;2022-10-22T05:45:53;96883.28;;;13.14;100.00
3796;BME280;1913;50.660;7.834;2022-10-22T05:48:18;96886.81;;;13.08;100.00
3796;BME280;1913;50.660;7.834;2022-10-22T05:50:47;96882.59;;;13.07;100.00
3796;BME280;1913;50.660;7.834;2022-10-22T05:53:17;96886.91;;;13.02;100.00
3796;BME280;1913;50.660;7.834;2022-10-22T05:55:43;96887.94;;;13.01;100.00
3796;BME280;1913;50.660;7.834;2022-10-22T05:58:13;96886.34;;;13.00;100.00
3796;BME280;1913;50.660;7.834;2022-10-22T06:00:39;96890.75;;;12.87;100.00
3796;BME280;1913;50.660;7.834;2022-10-22T06:03:04;96895.47;;;12.85;100.00
3796;BME280;1913;50.660;7.834;2022-10-22T06:05:33;96893.03;;;12.84;100.00
3796;BME280;1913;50.660;7.834;2022-10-22T06:07:59;96893.88;;;12.84;100.00
3796;BME280;1913;50.660;7.834;2022-10-22T06:10:25;96902.06;;;12.76;100.00
3796;BME280;1913;50.660;7.834;2022-10-22T06:12:50;96898.06;;;12.74;100.00
3796;BME280;1913;50.660;7.834;2022-10-22T06:15:17;96899.84;;;12.61;100.00
3796;BME280;1913;50.660;7.834;2022-10-22T06:17:44;96902.69;;;12.60;100.00
3796;BME280;1913;50.660;7.834;2022-10-22T06:20:10;96906.66;;;12.51;100.00
3796;BME280;1913;50.660;7.834;2022-10-22T06:22:36;96904.09;;;12.44;100.00
3796;BME280;1913;50.660;7.834;2022-10-22T06:25:03;96906.16;;;12.42;100.00
3796;BME280;1913;50.660;7.834;2022-10-22T06:27:28;96908.78;;;12.42;100.00
3796;BME280;1913;50.660;7.834;2022-10-22T06:29:54;96914.94;;;12.54;100.00
3796;BME280;1913;50.660;7.834;2022-10-22T06:32:19;96922.19;;;12.40;100.00
3796;BME280;1913;50.660;7.834;2022-10-22T06:34:45;96928.69;;;12.19;100.00
3796;BME280;1913;50.660;7.834;2022-10-22T06:37:12;96934.47;;;12.28;100.00
3796;BME280;1913;50.660;7.834;2022-10-22T06:39:39;96936.75;;;12.25;100.00
3796;BME280;1913;50.660;7.834;2022-10-22T06:42:04;96939.03;;;12.39;100.00
3796;BME280;1913;50.660;7.834;2022-10-22T06:44:31;96941.00;;;12.44;100.00
3796;BME280;1913;50.660;7.834;2022-10-22T06:46:57;96951.47;;;12.51;100.00
3796;BME280;1913;50.660;7.834;2022-10-22T06:49:22;96953.06;;;12.52;100.00
3796;BME280;1913;50.660;7.834;2022-10-22T06:51:51;96958.19;;;12.65;100.00
3796;BME280;1913;50.660;7.834;2022-10-22T06:54:17;96975.34;;;12.74;100.00
3796;BME280;1913;50.660;7.834;2022-10-22T06:56:43;96969.50;;;12.84;100.00
3796;BME280;1913;50.660;7.834;2022-10-22T06:59:08;96984.97;;;12.99;100.00
3796;BME280;1913;50.660;7.834;2022-10-22T07:01:34;96979.94;;;13.09;100.00
3796;BME280;1913;50.660;7.834;2022-10-22T07:04:01;96988.94;;;13.19;100.00
3796;BME280;1913;50.660;7.834;2022-10-22T07:06:27;96996.25;;;13.24;100.00
3796;BME280;1913;50.660;7.834;2022-10-22T07:08:55;96990.34;;;13.22;100.00
3796;BME280;1913;50.660;7.834;2022-10-22T07:11:29;96989.13;;;13.25;100.00
3796;BME280;1913;50.660;7.834;2022-10-22T07:13:58;96988.31;;;13.24;100.00
3796;BME280;1913;50.660;7.834;2022-10-22T07:16:24;96987.19;;;13.32;100.00
3796;BME280;1913;50.660;7.834;2022-10-22T07:18:50;96996.59;;;13.28;100.00
3796;BME280;1913;50.660;7.834;2022-10-22T07:21:18;96990.03;;;13.30;100.00
3796;BME280;1913;50.660;7.834;2022-10-22T07:23:45;96996.53;;;13.46;100.00
3796;BME280;1913;50.660;7.834;2022-10-22T07:26:12;97000.44;;;13.55;100.00
3796;BME280;1913;50.660;7.834;2022-10-22T07:28:38;97000.19;;;13.87;100.00
3796;BME280;1913;50.660;7.834;2022-10-22T07:31:07;97000.44;;;14.09;100.00
3796;BME280;1913;50.660;7.834;2022-10-22T07:33:33;97009.06;;;14.40;100.00
3796;BME280;1913;50.660;7.834;2022-10-22T07:36:00;97000.91;;;14.65;100.00
3796;BME280;1913;50.660;7.834;2022-10-22T07:38:27;97000.66;;;14.78;100.00
3796;BME280;1913;50.660;7.834;2022-10-22T07:40:53;97016.56;;;15.06;100.00
3796;BME280;1913;50.660;7.834;2022-10-22T07:43:19;97012.94;;;15.24;100.00
3796;BME280;1913;50.660;7.834;2022-10-22T07:45:44;97030.22;;;15.15;100.00
3796;BME280;1913;50.660;7.834;2022-10-22T07:48:10;97028.88;;;15.01;100.00
3796;BME280;1913;50.660;7.834;2022-10-22T07:50:35;97034.25;;;14.77;100.00
3796;BME280;1913;50.660;7.834;2022-10-22T07:53:01;97030.38;;;14.97;100.00
3796;BME280;1913;50.660;7.834;2022-10-22T07:55:26;97038.03;;;14.81;100.00
3796;BME280;1913;50.660;7.834;2022-10-22T07:57:52;97040.53;;;14.88;100.00
3796;BME280;1913;50.660;7.834;2022-10-22T08:00:17;97045.00;;;14.99;100.00
3796;BME280;1913;50.660;7.834;2022-10-22T08:02:43;97048.03;;;14.91;100.00
3796;BME280;1913;50.660;7.834;2022-10-22T08:05:08;97054.00;;;14.87;100.00
3796;BME280;1913;50.660;7.834;2022-10-22T08:07:34;97047.81;;;14.81;100.00
3796;BME280;1913;50.660;7.834;2022-10-22T08:09:59;97056.84;;;15.08;100.00
3796;BME280;1913;50.660;7.834;2022-10-22T08:12:24;97057.19;;;15.12;100.00
3796;BME280;1913;50.660;7.834;2022-10-22T08:14:50;97058.84;;;15.30;100.00
3796;BME280;1913;50.660;7.834;2022-10-22T08:17:15;97070.41;;;15.52;100.00
3796;BME280;1913;50.660;7.834;2022-10-22T08:19:41;97060.22;;;15.32;100.00
3796;BME280;1913;50.660;7.834;2022-10-22T08:22:07;97067.41;;;15.49;100.00
3796;BME280;1913;50.660;7.834;2022-10-22T08:24:32;97070.63;;;15.51;100.00
3796;BME280;1913;50.660;7.834;2022-10-22T08:26:57;97066.38;;;15.50;100.00
3796;BME280;1913;50.660;7.834;2022-10-22T08:29:23;97066.81;;;15.18;100.00
3796;BME280;1913;50.660;7.834;2022-10-22T08:31:51;97069.22;;;15.60;100.00
3796;BME280;1913;50.660;7.834;2022-10-22T08:34:18;97065.84;;;16.78;100.00
3796;BME280;1913;50.660;7.834;2022-10-22T08:36:45;97073.81;;;16.99;100.00
3796;BME280;1913;50.660;7.834;2022-10-22T08:39:10;97075.19;;;17.24;100.00
3796;BME280;1913;50.660;7.834;2022-10-22T08:42:07;97078.72;;;17.30;100.00
3796;BME280;1913;50.660;7.834;2022-10-22T08:44:58;97078.94;;;17.72;100.00
3796;BME280;1913;50.660;7.834;2022-10-22T08:50:23;97086.59;;;18.23;100.00
3796;BME280;1913;50.660;7.834;2022-10-22T08:52:54;97093.19;;;18.52;100.00
3796;BME280;1913;50.660;7.834;2022-10-22T08:55:23;97079.31;;;18.45;100.00
3796;BME280;1913;50.660;7.834;2022-10-22T09:00:35;97087.38;;;18.60;100.00
3796;BME280;1913;50.660;7.834;2022-10-22T09:08:21;97104.06;;;19.30;100.00
3796;BME280;1913;50.660;7.834;2022-10-22T09:10:51;97098.63;;;19.78;100.00
3796;BME280;1913;50.660;7.834;2022-10-22T09:13:19;97107.56;;;19.36;100.00
3796;BME280;1913;50.660;7.834;2022-10-22T09:15:50;97104.50;;;19.75;100.00
3796;BME280;1913;50.660;7.834;2022-10-22T09:21:13;97109.06;;;19.95;100.00
3796;BME280;1913;50.660;7.834;2022-10-22T09:26:33;97121.63;;;20.04;100.00
3796;BME280;1913;50.660;7.834;2022-10-22T09:29:00;97117.84;;;19.85;100.00
3796;BME280;1913;50.660;7.834;2022-10-22T09:31:30;97117.59;;;19.19;100.00
3796;BME280;1913;50.660;7.834;2022-10-22T09:33:56;97124.44;;;19.04;100.00
3796;BME280;1913;50.660;7.834;2022-10-22T09:36:24;97125.47;;;19.56;100.00
3796;BME280;1913;50.660;7.834;2022-10-22T09:38:52;97139.75;;;20.02;100.00
3796;BME280;1913;50.660;7.834;2022-10-22T09:41:24;97127.16;;;19.72;100.00
3796;BME280;1913;50.660;7.834;2022-10-22T09:43:50;97126.22;;;19.36;100.00
3796;BME280;1913;50.660;7.834;2022-10-22T09:46:19;97133.50;;;19.61;100.00
3796;BME280;1913;50.660;7.834;2022-10-22T09:51:47;97136.22;;;19.76;100.00
3796;BME280;1913;50.660;7.834;2022-10-22T09:56:51;97132.28;;;18.14;100.00
3796;BME280;1913;50.660;7.834;2022-10-22T09:59:25;97136.41;;;17.78;100.00
3796;BME280;1913;50.660;7.834;2022-10-22T10:02:21;97142.94;;;17.70;100.00
3796;BME280;1913;50.660;7.834;2022-10-22T10:07:24;97142.69;;;16.89;100.00
3796;BME280;1913;50.660;7.834;2022-10-22T10:09:51;97148.31;;;16.93;100.00
3796;BME280;1913;50.660;7.834;2022-10-22T10:23:51;97138.84;;;16.80;100.00
3796;BME280;1913;50.660;7.834;2022-10-22T10:26:42;97134.22;;;16.25;100.00
3796;BME280;1913;50.660;7.834;2022-10-22T10:40:55;97156.84;;;16.44;100.00
3796;BME280;1913;50.660;7.834;2022-10-22T10:48:52;97157.19;;;16.02;100.00
3796;BME280;1913;50.660;7.834;2022-10-22T10:56:26;97168.34;;;15.76;100.00
3796;BME280;1913;50.660;7.834;2022-10-22T10:59:03;97159.22;;;15.84;100.00
3796;BME280;1913;50.660;7.834;2022-10-22T11:07:04;97164.47;;;15.67;100.00
3796;BME280;1913;50.660;7.834;2022-10-22T11:09:39;97166.31;;;15.66;100.00
3796;BME280;1913;50.660;7.834;2022-10-22T11:12:14;97161.56;;;15.97;100.00
3796;BME280;1913;50.660;7.834;2022-10-22T11:17:16;97175.06;;;15.95;100.00
3796;BME280;1913;50.660;7.834;2022-10-22T11:19:57;97169.25;;;16.10;100.00
3796;BME280;1913;50.660;7.834;2022-10-22T11:24:58;97169.69;;;16.52;100.00
3796;BME280;1913;50.660;7.834;2022-10-22T11:30:21;97176.03;;;16.35;100.00
3796;BME280;1913;50.660;7.834;2022-10-22T11:32:54;97178.28;;;16.43;100.00
3796;BME280;1913;50.660;7.834;2022-10-22T11:35:26;97180.38;;;16.58;100.00
3796;BME280;1913;50.660;7.834;2022-10-22T11:37:56;97185.38;;;16.54;100.00
3796;BME280;1913;50.660;7.834;2022-10-22T11:42:57;97166.09;;;16.59;100.00
3796;BME280;1913;50.660;7.834;2022-10-22T12:01:15;97147.25;;;18.26;100.00
3796;BME280;1913;50.660;7.834;2022-10-22T12:03:46;97149.47;;;18.07;100.00
3796;BME280;1913;50.660;7.834;2022-10-22T12:11:37;97159.91;;;18.73;100.00
3796;BME280;1913;50.660;7.834;2022-10-22T12:14:22;97151.47;;;18.22;100.00
3796;BME280;1913;50.660;7.834;2022-10-22T12:17:06;97157.72;;;17.61;100.00
3796;BME280;1913;50.660;7.834;2022-10-22T12:19:38;97148.75;;;17.23;100.00
3796;BME280;1913;50.660;7.834;2022-10-22T12:24:33;97153.00;;;16.69;100.00
3796;BME280;1913;50.660;7.834;2022-10-22T12:26:59;97152.25;;;16.73;100.00
3796;BME280;1913;50.660;7.834;2022-10-22T12:29:24;97159.88;;;16.53;100.00
3796;BME280;1913;50.660;7.834;2022-10-22T12:31:51;97154.50;;;16.48;100.00
3796;BME280;1913;50.660;7.834;2022-10-22T12:34:21;97144.38;;;16.28;100.00
3796;BME280;1913;50.660;7.834;2022-10-22T12:36:48;97152.09;;;16.30;100.00
3796;BME280;1913;50.660;7.834;2022-10-22T12:39:24;97152.47;;;16.21;100.00
3796;BME280;1913;50.660;7.834;2022-10-22T12:41:51;97161.00;;;16.23;100.00
3796;BME280;1913;50.660;7.834;2022-10-22T12:44:17;97155.19;;;16.10;100.00
3796;BME280;1913;50.660;7.834;2022-10-22T12:46:44;97162.63;;;15.96;100.00
3796;BME280;1913;50.660;7.834;2022-10-22T12:49:18;97153.63;;;15.97;100.00
3796;BME280;1913;50.660;7.834;2022-10-22T12:51:45;97148.91;;;15.99;100.00
3796;BME280;1913;50.660;7.834;2022-10-22T12:54:28;97150.59;;;16.05;100.00
3796;BME280;1913;50.660;7.834;2022-10-22T12:56:55;97159.06;;;16.19;100.00
3796;BME280;1913;50.660;7.834;2022-10-22T12:59:22;97155.00;;;16.45;100.00
3796;BME280;1913;50.660;7.834;2022-10-22T13:01:49;97159.81;;;17.15;100.00
3796;BME280;1913;50.660;7.834;2022-10-22T13:06:49;97153.09;;;18.87;100.00
3796;BME280;1913;50.660;7.834;2022-10-22T13:09:19;97143.03;;;18.94;100.00
3796;BME280;1913;50.660;7.834;2022-10-22T13:11:53;97133.69;;;19.49;100.00
3796;BME280;1913;50.660;7.834;2022-10-22T13:14:48;97147.72;;;19.87;100.00
3796;BME280;1913;50.660;7.834;2022-10-22T13:17:16;97150.47;;;20.23;100.00
3796;BME280;1913;50.660;7.834;2022-10-22T13:19:48;97143.06;;;20.50;100.00
3796;BME280;1913;50.660;7.834;2022-10-22T13:22:35;97131.81;;;20.89;100.00
3796;BME280;1913;50.660;7.834;2022-10-22T13:27:46;97148.31;;;20.09;100.00
3796;BME280;1913;50.660;7.834;2022-10-22T13:30:33;97148.25;;;19.79;100.00
3796;BME280;1913;50.660;7.834;2022-10-22T13:33:03;97150.47;;;20.23;100.00
3796;BME280;1913;50.660;7.834;2022-10-22T13:35:31;97152.00;;;19.25;100.00
3796;BME280;1913;50.660;7.834;2022-10-22T13:37:58;97144.03;;;20.08;100.00
3796;BME280;1913;50.660;7.834;2022-10-22T13:40:23;97148.72;;;19.71;100.00
3796;BME280;1913;50.660;7.834;2022-10-22T13:42:49;97145.94;;;19.45;100.00
3796;BME280;1913;50.660;7.834;2022-10-22T13:45:15;97149.72;;;18.64;100.00
3796;BME280;1913;50.660;7.834;2022-10-22T13:47:44;97150.91;;;18.19;100.00
3796;BME280;1913;50.660;7.834;2022-10-22T13:50:15;97139.69;;;18.12;100.00
3796;BME280;1913;50.660;7.834;2022-10-22T13:52:50;97151.94;;;17.86;100.00
3796;BME280;1913;50.660;7.834;2022-10-22T13:55:25;97150.78;;;17.38;100.00
3796;BME280;1913;50.660;7.834;2022-10-22T13:58:08;97143.88;;;17.37;100.00
3796;BME280;1913;50.660;7.834;2022-10-22T14:00:36;97145.56;;;17.65;100.00
3796;BME280;1913;50.660;7.834;2022-10-22T14:03:02;97142.41;;;17.68;100.00
3796;BME280;1913;50.660;7.834;2022-10-22T14:05:28;97146.94;;;17.95;100.00
3796;BME280;1913;50.660;7.834;2022-10-22T14:07:54;97147.09;;;18.10;100.00
3796;BME280;1913;50.660;7.834;2022-10-22T14:10:23;97154.69;;;17.97;100.00
3796;BME280;1913;50.660;7.834;2022-10-22T14:12:49;97157.16;;;17.81;100.00
3796;BME280;1913;50.660;7.834;2022-10-22T14:15:17;97156.19;;;17.65;100.00
3796;BME280;1913;50.660;7.834;2022-10-22T14:17:45;97156.19;;;17.65;100.00
3796;BME280;1913;50.660;7.834;2022-10-22T14:20:23;97150.16;;;17.53;100.00
3796;BME280;1913;50.660;7.834;2022-10-22T14:22:50;97146.84;;;17.41;100.00
3796;BME280;1913;50.660;7.834;2022-10-22T14:25:19;97152.59;;;17.33;100.00
3796;BME280;1913;50.660;7.834;2022-10-22T14:27:44;97149.81;;;17.22;100.00
3796;BME280;1913;50.660;7.834;2022-10-22T14:30:21;97142.97;;;17.10;100.00
3796;BME280;1913;50.660;7.834;2022-10-22T14:32:47;97148.22;;;17.05;100.00
3796;BME280;1913;50.660;7.834;2022-10-22T14:35:16;97148.38;;;17.15;100.00
3796;BME280;1913;50.660;7.834;2022-10-22T14:37:42;97151.72;;;17.27;100.00
3796;BME280;1913;50.660;7.834;2022-10-22T14:40:11;97148.56;;;17.08;100.00
3796;BME280;1913;50.660;7.834;2022-10-22T14:42:43;97162.63;;;17.09;100.00
3796;BME280;1913;50.660;7.834;2022-10-22T14:45:23;97157.19;;;17.20;100.00
3796;BME280;1913;50.660;7.834;2022-10-22T14:47:50;97162.38;;;17.10;100.00
3796;BME280;1913;50.660;7.834;2022-10-22T14:50:17;97160.78;;;17.09;100.00
3796;BME280;1913;50.660;7.834;2022-10-22T14:52:43;97156.34;;;17.15;100.00
3796;BME280;1913;50.660;7.834;2022-10-22T14:55:11;97164.25;;;16.93;100.00
3796;BME280;1913;50.660;7.834;2022-10-22T14:57:37;97162.84;;;17.07;100.00
3796;BME280;1913;50.660;7.834;2022-10-22T15:00:05;97166.72;;;16.99;100.00
3796;BME280;1913;50.660;7.834;2022-10-22T15:02:31;97173.50;;;16.73;100.00
3796;BME280;1913;50.660;7.834;2022-10-22T15:04:56;97171.19;;;16.77;100.00
3796;BME280;1913;50.660;7.834;2022-10-22T15:07:22;97169.00;;;16.74;100.00
3796;BME280;1913;50.660;7.834;2022-10-22T15:09:49;97179.72;;;16.50;100.00
3796;BME280;1913;50.660;7.834;2022-10-22T15:12:14;97181.28;;;16.63;100.00
3796;BME280;1913;50.660;7.834;2022-10-22T15:14:39;97175.91;;;16.92;100.00
3796;BME280;1913;50.660;7.834;2022-10-22T15:17:05;97179.47;;;16.97;100.00
3796;BME280;1913;50.660;7.834;2022-10-22T15:19:30;97176.69;;;17.26;100.00
3796;BME280;1913;50.660;7.834;2022-10-22T15:21:56;97171.59;;;17.24;100.00
3796;BME280;1913;50.660;7.834;2022-10-22T15:24:21;97171.28;;;17.43;100.00
3796;BME280;1913;50.660;7.834;2022-10-22T15:26:46;97175.19;;;17.35;100.00
3796;BME280;1913;50.660;7.834;2022-10-22T15:29:12;97169.16;;;17.40;100.00